Terminal Aerodrome Forecast
Issued by NWS Austin/San Antonio, TX

Home | Current Version | Previous Version | Text Only | Print | Product List | Glossary On
Versions: 1 2 3 4 5 6 7 8 9 10 11 12 13 14 15 16 17 18 19 20 21 22 23 24 25
000
FTUS44 KEWX 042341
TAFAUS
TAF
KAUS 042341Z 0500/0606 02024G35KT 6SM -RA BR BKN008 OVC015
     FM050300 36030G40KT 5SM -RA BR OVC007
      TEMPO 0510/0514 5SM -FZRA
     FM051500 36028G38KT P6SM OVC015
     FM052100 01019G26KT P6SM SCT040=

USA.gov is the U.S. government's official web portal to all federal, state and local government web resources and services.